createdAt,value
2017-12-02T00:00:57.000Z,-0.46
2017-12-02T00:01:57.000Z,-0.44
2017-12-02T00:03:09.000Z,-0.42
2017-12-02T00:03:57.000Z,-0.41
2017-12-02T00:04:57.000Z,-0.40
2017-12-02T00:05:57.000Z,-0.40
2017-12-02T00:06:57.000Z,-0.41
2017-12-02T00:07:57.000Z,-0.40
2017-12-02T00:08:57.000Z,-0.38
2017-12-02T00:09:57.000Z,-0.37
2017-12-02T00:10:57.000Z,-0.38
2017-12-02T00:11:57.000Z,-0.38
2017-12-02T00:12:57.000Z,-0.35
2017-12-02T00:13:57.000Z,-0.33
2017-12-02T00:14:57.000Z,-0.32
2017-12-02T00:15:57.000Z,-0.31
2017-12-02T00:16:57.000Z,-0.29
2017-12-02T00:17:57.000Z,-0.25
2017-12-02T00:18:57.000Z,-0.22
2017-12-02T00:19:57.000Z,-0.19
2017-12-02T00:20:57.000Z,-0.17
2017-12-02T00:21:57.000Z,-0.14
2017-12-02T00:22:57.000Z,-0.11
2017-12-02T00:23:57.000Z,-0.08
2017-12-02T00:24:57.000Z,-0.04
2017-12-02T00:25:57.000Z,-0.01
2017-12-02T00:26:57.000Z,0.00
2017-12-02T00:27:57.000Z,0.02
2017-12-02T00:28:57.000Z,0.05
2017-12-02T00:29:57.000Z,0.08
2017-12-02T00:30:57.000Z,0.09
2017-12-02T00:31:57.000Z,0.13
2017-12-02T00:32:57.000Z,0.15
2017-12-02T00:33:57.000Z,0.17
2017-12-02T00:34:57.000Z,0.20
2017-12-02T00:35:57.000Z,0.20
2017-12-02T00:36:57.000Z,0.23
2017-12-02T00:37:57.000Z,0.24
2017-12-02T00:38:57.000Z,0.24
2017-12-02T00:39:57.000Z,0.24
2017-12-02T00:40:57.000Z,0.23
2017-12-02T00:41:57.000Z,0.23
2017-12-02T00:42:57.000Z,0.24
2017-12-02T00:43:57.000Z,0.25
2017-12-02T00:44:57.000Z,0.23
2017-12-02T00:45:57.000Z,0.24
2017-12-02T00:46:57.000Z,0.24
2017-12-02T00:47:57.000Z,0.24
2017-12-02T00:48:57.000Z,0.21
2017-12-02T00:49:57.000Z,0.19
2017-12-02T00:50:57.000Z,0.18
2017-12-02T00:51:57.000Z,0.18
2017-12-02T00:52:57.000Z,0.20
2017-12-02T00:53:57.000Z,0.21
2017-12-02T00:54:57.000Z,0.22
2017-12-02T00:55:57.000Z,0.22
2017-12-02T00:56:57.000Z,0.22
2017-12-02T00:57:57.000Z,0.22
2017-12-02T00:58:57.000Z,0.23
2017-12-02T00:59:57.000Z,0.23
2017-12-02T01:00:57.000Z,0.23
2017-12-02T01:01:57.000Z,0.26
2017-12-02T01:02:57.000Z,0.25
2017-12-02T01:03:57.000Z,0.27
2017-12-02T01:04:57.000Z,0.26
2017-12-02T01:05:57.000Z,0.26
2017-12-02T01:06:57.000Z,0.25
2017-12-02T01:07:57.000Z,0.26
2017-12-02T01:08:57.000Z,0.25
2017-12-02T01:09:57.000Z,0.25
2017-12-02T01:10:57.000Z,0.24
2017-12-02T01:11:57.000Z,0.22
2017-12-02T01:12:57.000Z,0.19
2017-12-02T01:13:57.000Z,0.18
2017-12-02T01:14:57.000Z,0.17
2017-12-02T01:15:57.000Z,0.20
2017-12-02T01:16:57.000Z,0.19
2017-12-02T01:17:57.000Z,0.18
2017-12-02T01:18:57.000Z,0.17
2017-12-02T01:19:57.000Z,0.15
2017-12-02T01:20:57.000Z,0.18
2017-12-02T01:21:57.000Z,0.19
2017-12-02T01:22:57.000Z,0.20
2017-12-02T01:23:57.000Z,0.21
2017-12-02T01:24:57.000Z,0.22
2017-12-02T01:25:57.000Z,0.23
2017-12-02T01:26:57.000Z,0.23
2017-12-02T01:27:57.000Z,0.24
2017-12-02T01:28:57.000Z,0.26
2017-12-02T01:29:57.000Z,0.27
2017-12-02T01:30:57.000Z,0.27
2017-12-02T01:31:57.000Z,0.27
2017-12-02T01:32:57.000Z,0.27
2017-12-02T01:33:57.000Z,0.26
2017-12-02T01:34:57.000Z,0.22
2017-12-02T01:35:57.000Z,0.19
2017-12-02T01:36:57.000Z,0.17
2017-12-02T01:37:57.000Z,0.17
2017-12-02T01:38:57.000Z,0.17
2017-12-02T01:39:57.000Z,0.18
2017-12-02T01:40:57.000Z,0.17
2017-12-02T01:41:57.000Z,0.18
2017-12-02T01:42:57.000Z,0.18
2017-12-02T01:43:57.000Z,0.19
2017-12-02T01:44:57.000Z,0.18
2017-12-02T01:45:57.000Z,0.19
2017-12-02T01:46:57.000Z,0.18
2017-12-02T01:47:57.000Z,0.20
2017-12-02T01:48:57.000Z,0.19
2017-12-02T01:50:01.000Z,0.20
2017-12-02T01:50:57.000Z,0.21
2017-12-02T01:51:57.000Z,0.24
2017-12-02T01:52:57.000Z,0.24
2017-12-02T01:53:57.000Z,0.25
2017-12-02T01:54:57.000Z,0.25
2017-12-02T01:55:57.000Z,0.25
2017-12-02T01:56:57.000Z,0.25
2017-12-02T01:57:57.000Z,0.24
2017-12-02T01:58:57.000Z,0.26
2017-12-02T01:59:57.000Z,0.28
2017-12-02T02:00:57.000Z,0.29
2017-12-02T02:01:57.000Z,0.31
2017-12-02T02:02:57.000Z,0.32
2017-12-02T02:03:57.000Z,0.32
2017-12-02T02:04:57.000Z,0.31
2017-12-02T02:05:57.000Z,0.31
2017-12-02T02:06:57.000Z,0.30
2017-12-02T02:07:57.000Z,0.28
2017-12-02T02:08:57.000Z,0.30
2017-12-02T02:09:57.000Z,0.31
2017-12-02T02:10:57.000Z,0.34
2017-12-02T02:11:57.000Z,0.33
2017-12-02T02:12:57.000Z,0.36
2017-12-02T02:13:57.000Z,0.37
2017-12-02T02:14:57.000Z,0.39
2017-12-02T02:15:57.000Z,0.38
2017-12-02T02:16:57.000Z,0.38
2017-12-02T02:17:57.000Z,0.38
2017-12-02T02:18:57.000Z,0.38
2017-12-02T02:19:57.000Z,0.38
2017-12-02T02:20:57.000Z,0.39
2017-12-02T02:21:57.000Z,0.38
2017-12-02T02:22:57.000Z,0.37
2017-12-02T02:23:57.000Z,0.33
2017-12-02T02:24:57.000Z,0.32
2017-12-02T02:25:57.000Z,0.33
2017-12-02T02:26:57.000Z,0.33
2017-12-02T02:27:57.000Z,0.34
2017-12-02T02:28:57.000Z,0.36
2017-12-02T02:29:57.000Z,0.37
2017-12-02T02:30:57.000Z,0.37
2017-12-02T02:31:57.000Z,0.38
2017-12-02T02:32:57.000Z,0.38
2017-12-02T02:33:57.000Z,0.38
2017-12-02T02:34:57.000Z,0.39
2017-12-02T02:35:57.000Z,0.40
2017-12-02T02:36:57.000Z,0.42
2017-12-02T02:37:57.000Z,0.42
2017-12-02T02:38:57.000Z,0.43
2017-12-02T02:39:57.000Z,0.43
2017-12-02T02:40:57.000Z,0.42
2017-12-02T02:41:57.000Z,0.43
2017-12-02T02:42:57.000Z,0.42
2017-12-02T02:43:57.000Z,0.43
2017-12-02T02:44:57.000Z,0.43
2017-12-02T02:45:57.000Z,0.44
2017-12-02T02:46:57.000Z,0.45
2017-12-02T02:47:57.000Z,0.46
2017-12-02T02:48:57.000Z,0.45
2017-12-02T02:49:57.000Z,0.45
2017-12-02T02:50:57.000Z,0.46
2017-12-02T02:51:57.000Z,0.45
2017-12-02T02:52:57.000Z,0.46
2017-12-02T02:53:57.000Z,0.45
2017-12-02T02:54:57.000Z,0.45
2017-12-02T02:55:57.000Z,0.44
2017-12-02T02:56:57.000Z,0.44
2017-12-02T02:57:57.000Z,0.44
2017-12-02T02:58:57.000Z,0.45
2017-12-02T02:59:57.000Z,0.42
2017-12-02T03:00:57.000Z,0.42
2017-12-02T03:01:57.000Z,0.41
2017-12-02T03:02:57.000Z,0.41
2017-12-02T03:03:57.000Z,0.43
2017-12-02T03:04:57.000Z,0.43
2017-12-02T03:05:57.000Z,0.43
2017-12-02T03:06:57.000Z,0.43
2017-12-02T03:07:57.000Z,0.44
2017-12-02T03:08:57.000Z,0.44
2017-12-02T03:09:57.000Z,0.45
2017-12-02T03:10:57.000Z,0.45
2017-12-02T03:11:57.000Z,0.45
2017-12-02T03:12:57.000Z,0.44
2017-12-02T03:13:57.000Z,0.45
2017-12-02T03:14:57.000Z,0.45
2017-12-02T03:18:14.000Z,0.47
2017-12-02T03:18:16.000Z,0.47
2017-12-02T03:18:17.000Z,0.47
2017-12-02T03:18:57.000Z,0.48
2017-12-02T03:19:57.000Z,0.49
2017-12-02T03:20:57.000Z,0.48
2017-12-02T03:21:57.000Z,0.48
2017-12-02T03:22:57.000Z,0.49
2017-12-02T03:23:57.000Z,0.49
2017-12-02T03:24:57.000Z,0.48
2017-12-02T03:25:57.000Z,0.49
2017-12-02T03:26:57.000Z,0.50
2017-12-02T03:27:57.000Z,0.49
2017-12-02T03:28:57.000Z,0.50
2017-12-02T03:29:57.000Z,0.51
2017-12-02T03:30:57.000Z,0.49
2017-12-02T03:31:57.000Z,0.49
2017-12-02T03:32:57.000Z,0.49
2017-12-02T03:33:57.000Z,0.48
2017-12-02T03:34:57.000Z,0.48
2017-12-02T03:35:57.000Z,0.49
2017-12-02T03:36:57.000Z,0.49
2017-12-02T03:37:57.000Z,0.48
2017-12-02T03:38:58.000Z,0.52
2017-12-02T03:39:57.000Z,0.52
2017-12-02T03:40:58.000Z,0.50
2017-12-02T03:41:58.000Z,0.50
2017-12-02T03:42:58.000Z,0.49
2017-12-02T03:43:58.000Z,0.48
2017-12-02T03:44:58.000Z,0.47
2017-12-02T03:45:58.000Z,0.48
2017-12-02T03:46:58.000Z,0.46
2017-12-02T03:47:58.000Z,0.46
2017-12-02T03:48:58.000Z,0.49
2017-12-02T03:49:58.000Z,0.50
2017-12-02T03:50:58.000Z,0.51
2017-12-02T03:51:58.000Z,0.51
2017-12-02T03:52:58.000Z,0.52
2017-12-02T03:53:58.000Z,0.53
2017-12-02T03:54:58.000Z,0.53
2017-12-02T03:55:58.000Z,0.55
2017-12-02T03:56:58.000Z,0.54
2017-12-02T03:57:58.000Z,0.54
2017-12-02T03:58:58.000Z,0.53
2017-12-02T03:59:58.000Z,0.52
2017-12-02T04:00:58.000Z,0.51
2017-12-02T04:01:58.000Z,0.51
2017-12-02T04:02:58.000Z,0.51
2017-12-02T04:03:58.000Z,0.51
2017-12-02T04:04:58.000Z,0.52
2017-12-02T04:05:58.000Z,0.54
2017-12-02T04:06:58.000Z,0.52
2017-12-02T04:07:58.000Z,0.51
2017-12-02T04:08:58.000Z,0.49
2017-12-02T04:09:58.000Z,0.48
2017-12-02T04:10:58.000Z,0.46
2017-12-02T04:11:58.000Z,0.45
2017-12-02T04:12:58.000Z,0.47
2017-12-02T04:13:58.000Z,0.46
2017-12-02T04:14:58.000Z,0.48
2017-12-02T04:15:58.000Z,0.47
2017-12-02T04:16:58.000Z,0.48
2017-12-02T04:17:58.000Z,0.49
2017-12-02T04:18:58.000Z,0.48
2017-12-02T04:19:58.000Z,0.49
2017-12-02T04:20:58.000Z,0.51
2017-12-02T04:21:58.000Z,0.51
2017-12-02T04:22:58.000Z,0.50
2017-12-02T04:23:58.000Z,0.48
2017-12-02T04:24:58.000Z,0.46
2017-12-02T04:25:58.000Z,0.45
2017-12-02T04:26:58.000Z,0.45
2017-12-02T04:27:58.000Z,0.45
2017-12-02T04:28:58.000Z,0.46
2017-12-02T04:29:58.000Z,0.47
2017-12-02T04:30:58.000Z,0.48
2017-12-02T04:31:58.000Z,0.49
2017-12-02T04:32:58.000Z,0.51
2017-12-02T04:33:58.000Z,0.51
2017-12-02T04:34:58.000Z,0.52
2017-12-02T04:35:58.000Z,0.54
2017-12-02T04:36:58.000Z,0.56
2017-12-02T04:37:58.000Z,0.56
2017-12-02T04:38:58.000Z,0.54
2017-12-02T04:39:58.000Z,0.54
2017-12-02T04:40:58.000Z,0.55
2017-12-02T04:41:58.000Z,0.55
2017-12-02T04:43:08.000Z,0.55
2017-12-02T04:43:25.000Z,0.56
2017-12-02T04:43:58.000Z,0.58
2017-12-02T04:44:58.000Z,0.57
2017-12-02T04:45:58.000Z,0.57
2017-12-02T04:46:58.000Z,0.56
2017-12-02T04:47:58.000Z,0.57
2017-12-02T04:48:58.000Z,0.58
2017-12-02T04:49:58.000Z,0.59
2017-12-02T04:50:58.000Z,0.57
2017-12-02T04:51:58.000Z,0.59
2017-12-02T04:52:58.000Z,0.60
2017-12-02T04:53:58.000Z,0.61
2017-12-02T04:54:58.000Z,0.61
2017-12-02T04:55:58.000Z,0.58
2017-12-02T04:56:58.000Z,0.60
2017-12-02T04:57:58.000Z,0.60
2017-12-02T04:58:58.000Z,0.60
2017-12-02T04:59:58.000Z,0.60
2017-12-02T05:00:58.000Z,0.59
2017-12-02T05:01:58.000Z,0.59
2017-12-02T05:02:58.000Z,0.58
2017-12-02T05:03:58.000Z,0.57
2017-12-02T05:04:58.000Z,0.58
2017-12-02T05:05:58.000Z,0.59
2017-12-02T05:06:58.000Z,0.60
2017-12-02T05:07:58.000Z,0.59
2017-12-02T05:08:58.000Z,0.59
2017-12-02T05:09:58.000Z,0.58
2017-12-02T05:10:58.000Z,0.56
2017-12-02T05:11:58.000Z,0.55
2017-12-02T05:12:58.000Z,0.55
2017-12-02T05:13:58.000Z,0.54
2017-12-02T05:14:58.000Z,0.55
2017-12-02T05:15:58.000Z,0.56
2017-12-02T05:16:58.000Z,0.55
2017-12-02T05:17:58.000Z,0.55
2017-12-02T05:18:58.000Z,0.54
2017-12-02T05:19:58.000Z,0.53
2017-12-02T05:20:58.000Z,0.53
2017-12-02T05:21:58.000Z,0.54
2017-12-02T05:22:58.000Z,0.55
2017-12-02T05:23:58.000Z,0.54
2017-12-02T05:24:58.000Z,0.55
2017-12-02T05:25:58.000Z,0.53
2017-12-02T05:26:58.000Z,0.54
2017-12-02T05:27:58.000Z,0.53
2017-12-02T05:28:58.000Z,0.54
2017-12-02T05:29:58.000Z,0.55
2017-12-02T05:30:58.000Z,0.54
2017-12-02T05:31:58.000Z,0.53
2017-12-02T05:32:58.000Z,0.52
2017-12-02T05:33:58.000Z,0.53
2017-12-02T05:34:58.000Z,0.52
2017-12-02T05:35:58.000Z,0.54
2017-12-02T05:36:58.000Z,0.54
2017-12-02T05:37:58.000Z,0.55
2017-12-02T05:38:58.000Z,0.55
2017-12-02T05:39:58.000Z,0.55
2017-12-02T05:40:58.000Z,0.59
2017-12-02T05:41:58.000Z,0.59
2017-12-02T05:42:58.000Z,0.58
2017-12-02T05:43:58.000Z,0.58
2017-12-02T05:44:58.000Z,0.56
2017-12-02T05:45:58.000Z,0.56
2017-12-02T05:46:58.000Z,0.57
2017-12-02T05:47:58.000Z,0.59
2017-12-02T05:48:58.000Z,0.58
2017-12-02T05:49:58.000Z,0.58
2017-12-02T05:50:58.000Z,0.60
2017-12-02T05:51:58.000Z,0.61
2017-12-02T05:52:58.000Z,0.60
2017-12-02T05:53:58.000Z,0.61
2017-12-02T05:54:58.000Z,0.62
2017-12-02T05:55:58.000Z,0.60
2017-12-02T05:56:58.000Z,0.59
2017-12-02T05:57:58.000Z,0.58
2017-12-02T05:58:58.000Z,0.59
2017-12-02T05:59:58.000Z,0.59
2017-12-02T06:00:58.000Z,0.61
2017-12-02T06:01:58.000Z,0.63
2017-12-02T06:02:58.000Z,0.63
2017-12-02T06:03:58.000Z,0.64
2017-12-02T06:04:58.000Z,0.66
2017-12-02T06:05:58.000Z,0.67
2017-12-02T06:06:58.000Z,0.67
2017-12-02T06:07:58.000Z,0.68
2017-12-02T06:08:58.000Z,0.69
2017-12-02T06:09:58.000Z,0.71
2017-12-02T06:10:58.000Z,0.69
2017-12-02T06:11:58.000Z,0.70
2017-12-02T06:12:58.000Z,0.68
2017-12-02T06:13:58.000Z,0.66
2017-12-02T06:14:58.000Z,0.63
2017-12-02T06:15:58.000Z,0.62
2017-12-02T06:16:58.000Z,0.62
2017-12-02T06:17:58.000Z,0.61
2017-12-02T06:18:58.000Z,0.60
2017-12-02T06:19:58.000Z,0.61
2017-12-02T06:20:58.000Z,0.61
2017-12-02T06:21:58.000Z,0.62
2017-12-02T06:22:58.000Z,0.62
2017-12-02T06:23:58.000Z,0.62
2017-12-02T06:24:58.000Z,0.62
2017-12-02T06:25:58.000Z,0.62
2017-12-02T06:26:58.000Z,0.61
2017-12-02T06:27:58.000Z,0.61
2017-12-02T06:28:58.000Z,0.59
2017-12-02T06:29:58.000Z,0.58
2017-12-02T06:30:58.000Z,0.58
2017-12-02T06:31:58.000Z,0.58
2017-12-02T06:32:58.000Z,0.60
2017-12-02T06:33:58.000Z,0.61
2017-12-02T06:34:58.000Z,0.63
2017-12-02T06:35:58.000Z,0.65
2017-12-02T06:36:58.000Z,0.65
2017-12-02T06:37:58.000Z,0.66
2017-12-02T06:38:58.000Z,0.67
2017-12-02T06:39:58.000Z,0.67
2017-12-02T06:40:58.000Z,0.67
2017-12-02T06:41:58.000Z,0.67
2017-12-02T06:42:58.000Z,0.68
2017-12-02T06:43:58.000Z,0.68
2017-12-02T06:44:58.000Z,0.68
2017-12-02T06:45:58.000Z,0.67
2017-12-02T06:46:58.000Z,0.65
2017-12-02T06:47:58.000Z,0.63
2017-12-02T06:48:58.000Z,0.62
2017-12-02T06:49:58.000Z,0.62
2017-12-02T06:50:58.000Z,0.63
2017-12-02T06:51:58.000Z,0.65
2017-12-02T06:52:58.000Z,0.66
2017-12-02T06:53:58.000Z,0.66
2017-12-02T06:54:58.000Z,0.66
2017-12-02T06:55:58.000Z,0.69
2017-12-02T06:56:58.000Z,0.68
2017-12-02T06:57:58.000Z,0.68
2017-12-02T06:58:58.000Z,0.69
2017-12-02T06:59:58.000Z,0.71
2017-12-02T07:00:58.000Z,0.71
2017-12-02T07:01:58.000Z,0.70
2017-12-02T07:02:58.000Z,0.69
2017-12-02T07:03:58.000Z,0.68
2017-12-02T07:04:58.000Z,0.69
2017-12-02T07:05:58.000Z,0.69
2017-12-02T07:06:58.000Z,0.71
2017-12-02T07:07:58.000Z,0.72
2017-12-02T07:08:58.000Z,0.73
2017-12-02T07:09:58.000Z,0.73
2017-12-02T07:10:58.000Z,0.73
2017-12-02T07:11:58.000Z,0.74
2017-12-02T07:12:58.000Z,0.74
2017-12-02T07:13:58.000Z,0.73
2017-12-02T07:14:58.000Z,0.74
2017-12-02T07:15:58.000Z,0.74
2017-12-02T07:16:58.000Z,0.73
2017-12-02T07:17:58.000Z,0.73
2017-12-02T07:18:58.000Z,0.74
2017-12-02T07:19:58.000Z,0.75
2017-12-02T07:20:58.000Z,0.77
2017-12-02T07:21:58.000Z,0.78
2017-12-02T07:22:58.000Z,0.79
2017-12-02T07:23:58.000Z,0.80
2017-12-02T07:24:58.000Z,0.81
2017-12-02T07:25:58.000Z,0.81
2017-12-02T07:26:58.000Z,0.80
2017-12-02T07:27:58.000Z,0.79
2017-12-02T07:28:58.000Z,0.80
2017-12-02T07:29:58.000Z,0.81
2017-12-02T07:30:58.000Z,0.83
2017-12-02T07:31:58.000Z,0.84
2017-12-02T07:32:58.000Z,0.84
2017-12-02T07:33:58.000Z,0.83
2017-12-02T07:34:58.000Z,0.86
2017-12-02T07:35:58.000Z,0.86
2017-12-02T07:36:58.000Z,0.88
2017-12-02T07:37:58.000Z,0.89
2017-12-02T07:38:58.000Z,0.88
2017-12-02T07:39:58.000Z,0.88
2017-12-02T07:40:58.000Z,0.87
2017-12-02T07:41:58.000Z,0.88
2017-12-02T07:42:58.000Z,0.90
2017-12-02T07:44:00.000Z,0.92
2017-12-02T07:44:58.000Z,0.93
2017-12-02T07:45:58.000Z,0.94
2017-12-02T07:46:58.000Z,0.96
2017-12-02T07:47:58.000Z,0.98
2017-12-02T07:48:58.000Z,1.00
2017-12-02T07:49:58.000Z,1.01
2017-12-02T07:50:58.000Z,1.02
2017-12-02T07:51:58.000Z,1.03
2017-12-02T07:52:58.000Z,1.04
2017-12-02T07:53:59.000Z,1.06
2017-12-02T07:54:58.000Z,1.07
2017-12-02T07:55:58.000Z,1.09
2017-12-02T07:56:58.000Z,1.09
2017-12-02T07:57:58.000Z,1.09
2017-12-02T07:58:58.000Z,1.10
2017-12-02T07:59:58.000Z,1.11
2017-12-02T08:00:58.000Z,1.12
2017-12-02T08:01:58.000Z,1.12
2017-12-02T08:02:58.000Z,1.14
2017-12-02T08:03:58.000Z,1.15
2017-12-02T08:04:58.000Z,1.17
2017-12-02T08:05:58.000Z,1.15
2017-12-02T08:06:58.000Z,1.17
2017-12-02T08:07:58.000Z,1.17
2017-12-02T08:08:58.000Z,1.20
2017-12-02T08:09:58.000Z,1.22
2017-12-02T08:10:58.000Z,1.23
2017-12-02T08:11:58.000Z,1.24
2017-12-02T08:12:58.000Z,1.25
2017-12-02T08:13:58.000Z,1.25
2017-12-02T08:14:58.000Z,1.26
2017-12-02T08:15:58.000Z,1.26
2017-12-02T08:16:58.000Z,1.29
2017-12-02T08:17:58.000Z,1.29
2017-12-02T08:18:58.000Z,1.30
2017-12-02T08:19:58.000Z,1.29
2017-12-02T08:20:58.000Z,1.30
2017-12-02T08:21:58.000Z,1.30
2017-12-02T08:22:58.000Z,1.30
2017-12-02T08:23:58.000Z,1.32
2017-12-02T08:24:58.000Z,1.33
2017-12-02T08:25:58.000Z,1.35
2017-12-02T08:26:58.000Z,1.38
2017-12-02T08:27:58.000Z,1.39
2017-12-02T08:28:58.000Z,1.39
2017-12-02T08:29:58.000Z,1.39
2017-12-02T08:30:58.000Z,1.39
2017-12-02T08:31:58.000Z,1.40
2017-12-02T08:32:58.000Z,1.41
2017-12-02T08:33:58.000Z,1.43
2017-12-02T08:34:58.000Z,1.44
2017-12-02T08:35:58.000Z,1.46
2017-12-02T08:36:58.000Z,1.49
2017-12-02T08:37:58.000Z,1.49
2017-12-02T08:38:58.000Z,1.49
2017-12-02T08:39:58.000Z,1.51
2017-12-02T08:40:58.000Z,1.49
2017-12-02T08:41:59.000Z,1.48
2017-12-02T08:42:58.000Z,1.49
2017-12-02T08:43:58.000Z,1.51
2017-12-02T08:44:58.000Z,1.52
2017-12-02T08:45:58.000Z,1.53
2017-12-02T08:46:58.000Z,1.55
2017-12-02T08:47:58.000Z,1.56
2017-12-02T08:48:58.000Z,1.55
2017-12-02T08:49:58.000Z,1.56
2017-12-02T08:51:06.000Z,1.59
2017-12-02T08:51:58.000Z,1.59
2017-12-02T08:52:58.000Z,1.61
2017-12-02T08:53:58.000Z,1.65
2017-12-02T08:54:58.000Z,1.65
2017-12-02T08:55:58.000Z,1.68
2017-12-02T08:56:58.000Z,1.68
2017-12-02T08:57:58.000Z,1.69
2017-12-02T08:58:58.000Z,1.68
2017-12-02T08:59:58.000Z,1.68
2017-12-02T09:00:58.000Z,1.71
2017-12-02T09:01:58.000Z,1.70
2017-12-02T09:02:58.000Z,1.70
2017-12-02T09:03:58.000Z,1.70
2017-12-02T09:04:58.000Z,1.71
2017-12-02T09:05:58.000Z,1.70
2017-12-02T09:06:58.000Z,1.68
2017-12-02T09:07:58.000Z,1.70
2017-12-02T09:08:58.000Z,1.68
2017-12-02T09:09:58.000Z,1.70
2017-12-02T09:10:58.000Z,1.71
2017-12-02T09:11:58.000Z,1.71
2017-12-02T09:12:58.000Z,1.73
2017-12-02T09:13:58.000Z,1.76
2017-12-02T09:14:58.000Z,1.76
2017-12-02T09:15:59.000Z,1.81
2017-12-02T09:16:59.000Z,1.82
2017-12-02T09:17:58.000Z,1.83
2017-12-02T09:18:58.000Z,1.82
2017-12-02T09:19:58.000Z,1.82
2017-12-02T09:20:58.000Z,1.84
2017-12-02T09:21:58.000Z,1.86
2017-12-02T09:22:58.000Z,1.86
2017-12-02T09:23:58.000Z,1.89
2017-12-02T09:24:59.000Z,1.90
2017-12-02T09:25:59.000Z,1.91
2017-12-02T09:26:58.000Z,1.92
2017-12-02T09:27:59.000Z,1.94
2017-12-02T09:28:59.000Z,1.96
2017-12-02T09:29:59.000Z,1.97
2017-12-02T09:30:59.000Z,1.96
2017-12-02T09:31:59.000Z,1.97
2017-12-02T09:32:59.000Z,1.92
2017-12-02T09:33:59.000Z,1.92
2017-12-02T09:34:59.000Z,1.91
2017-12-02T09:35:59.000Z,1.88
2017-12-02T09:36:59.000Z,1.89
2017-12-02T09:37:59.000Z,1.89
2017-12-02T09:38:59.000Z,1.91
2017-12-02T09:39:59.000Z,1.91
2017-12-02T09:40:59.000Z,1.93
2017-12-02T09:41:59.000Z,1.92
2017-12-02T09:42:59.000Z,1.92
2017-12-02T09:43:59.000Z,1.93
2017-12-02T09:44:59.000Z,1.92
2017-12-02T09:45:59.000Z,1.91
2017-12-02T09:46:59.000Z,1.92
2017-12-02T09:47:59.000Z,1.94
2017-12-02T09:48:59.000Z,1.94
2017-12-02T09:49:59.000Z,1.96
2017-12-02T09:50:59.000Z,1.96
2017-12-02T09:51:59.000Z,1.97
2017-12-02T09:52:59.000Z,1.99
2017-12-02T09:53:59.000Z,2.00
2017-12-02T09:54:59.000Z,2.01
2017-12-02T09:55:59.000Z,2.02
2017-12-02T09:56:59.000Z,2.04
2017-12-02T09:57:59.000Z,2.06
2017-12-02T09:58:59.000Z,2.06
2017-12-02T09:59:59.000Z,2.06
2017-12-02T10:00:59.000Z,2.07
2017-12-02T10:01:59.000Z,2.08
2017-12-02T10:02:59.000Z,2.11
2017-12-02T10:03:59.000Z,2.13
2017-12-02T10:04:59.000Z,2.15
2017-12-02T10:05:59.000Z,2.17
2017-12-02T10:06:59.000Z,2.17
2017-12-02T10:07:59.000Z,2.19
2017-12-02T10:08:59.000Z,2.21
2017-12-02T10:09:59.000Z,2.17
2017-12-02T10:10:59.000Z,2.19
2017-12-02T10:11:59.000Z,2.19
2017-12-02T10:12:59.000Z,2.21
2017-12-02T10:13:59.000Z,2.22
2017-12-02T10:14:59.000Z,2.25
2017-12-02T10:15:59.000Z,2.26
2017-12-02T10:16:59.000Z,2.28
2017-12-02T10:17:59.000Z,2.29
2017-12-02T10:18:59.000Z,2.32
2017-12-02T10:19:59.000Z,2.35
2017-12-02T10:20:59.000Z,2.35
2017-12-02T10:21:59.000Z,2.38
2017-12-02T10:22:59.000Z,2.37
2017-12-02T10:23:59.000Z,2.38
2017-12-02T10:24:59.000Z,2.40
2017-12-02T10:25:59.000Z,2.43
2017-12-02T10:26:59.000Z,2.45
2017-12-02T10:27:59.000Z,2.45
2017-12-02T10:28:59.000Z,2.45
2017-12-02T10:29:59.000Z,2.45
2017-12-02T10:30:59.000Z,2.46
2017-12-02T10:31:59.000Z,2.48
2017-12-02T10:32:59.000Z,2.49
2017-12-02T10:33:59.000Z,2.50
2017-12-02T10:34:59.000Z,2.50
2017-12-02T10:35:59.000Z,2.49
2017-12-02T10:36:59.000Z,2.49
2017-12-02T10:37:59.000Z,2.47
2017-12-02T10:38:59.000Z,2.52
2017-12-02T10:39:59.000Z,2.54
2017-12-02T10:40:59.000Z,2.56
2017-12-02T10:41:59.000Z,2.61
2017-12-02T10:42:59.000Z,2.64
2017-12-02T10:43:59.000Z,2.69
2017-12-02T10:44:59.000Z,2.72
2017-12-02T10:45:59.000Z,2.77
2017-12-02T10:46:59.000Z,2.79
2017-12-02T10:47:59.000Z,2.80
2017-12-02T10:48:59.000Z,2.82
2017-12-02T10:49:59.000Z,2.81
2017-12-02T10:50:59.000Z,2.84
2017-12-02T10:51:59.000Z,2.84
2017-12-02T10:52:59.000Z,2.83
2017-12-02T10:53:59.000Z,2.85
2017-12-02T10:54:59.000Z,2.86
2017-12-02T10:55:59.000Z,2.86
2017-12-02T10:56:59.000Z,2.85
2017-12-02T10:57:59.000Z,2.87
2017-12-02T10:58:59.000Z,2.88
2017-12-02T10:59:59.000Z,2.89
2017-12-02T11:00:59.000Z,2.90
2017-12-02T11:01:59.000Z,2.88
2017-12-02T11:02:59.000Z,2.90
2017-12-02T11:03:59.000Z,2.93
2017-12-02T11:04:59.000Z,2.96
2017-12-02T11:05:59.000Z,2.98
2017-12-02T11:06:59.000Z,3.05
2017-12-02T11:07:59.000Z,3.11
2017-12-02T11:08:59.000Z,3.19
2017-12-02T11:09:59.000Z,3.24
2017-12-02T11:10:59.000Z,3.29
2017-12-02T11:11:59.000Z,3.34
2017-12-02T11:12:59.000Z,3.43
2017-12-02T11:13:59.000Z,3.41
2017-12-02T11:14:59.000Z,3.43
2017-12-02T11:15:59.000Z,3.47
2017-12-02T11:16:59.000Z,3.48
2017-12-02T11:17:59.000Z,3.49
2017-12-02T11:18:59.000Z,3.41
2017-12-02T11:19:59.000Z,3.43
2017-12-02T11:20:59.000Z,3.44
2017-12-02T11:21:59.000Z,3.43
2017-12-02T11:22:59.000Z,3.40
2017-12-02T11:23:59.000Z,3.37
2017-12-02T11:24:59.000Z,3.41
2017-12-02T11:25:59.000Z,3.48
2017-12-02T11:26:59.000Z,3.56
2017-12-02T11:27:59.000Z,3.60
2017-12-02T11:28:59.000Z,3.68
2017-12-02T11:29:59.000Z,3.76
2017-12-02T11:30:59.000Z,3.84
2017-12-02T11:31:59.000Z,3.86
2017-12-02T11:32:59.000Z,3.84
2017-12-02T11:33:59.000Z,3.88
2017-12-02T11:34:59.000Z,3.94
2017-12-02T11:35:59.000Z,3.92
2017-12-02T11:36:59.000Z,3.93
2017-12-02T11:37:59.000Z,3.90
2017-12-02T11:38:59.000Z,3.89
2017-12-02T11:39:59.000Z,3.88
2017-12-02T11:40:59.000Z,3.85
2017-12-02T11:41:59.000Z,3.75
2017-12-02T11:42:59.000Z,3.70
2017-12-02T11:43:59.000Z,3.69
2017-12-02T11:44:59.000Z,3.62
2017-12-02T11:45:59.000Z,3.49
2017-12-02T11:46:59.000Z,3.37
2017-12-02T11:47:59.000Z,3.32
2017-12-02T11:48:59.000Z,3.32
2017-12-02T11:49:59.000Z,3.38
2017-12-02T11:50:59.000Z,3.44
2017-12-02T11:51:59.000Z,3.49
2017-12-02T11:52:59.000Z,3.52
2017-12-02T11:53:59.000Z,3.54
2017-12-02T11:54:59.000Z,3.55
2017-12-02T11:55:59.000Z,3.57
2017-12-02T11:56:59.000Z,3.62
2017-12-02T11:57:59.000Z,3.67
2017-12-02T11:58:59.000Z,3.67
2017-12-02T11:59:59.000Z,3.72
2017-12-02T12:00:59.000Z,3.77
2017-12-02T12:01:59.000Z,3.78
2017-12-02T12:02:59.000Z,3.70
2017-12-02T12:03:59.000Z,3.64
2017-12-02T12:04:59.000Z,3.61
2017-12-02T12:05:59.000Z,3.63
2017-12-02T12:06:59.000Z,3.65
2017-12-02T12:07:59.000Z,3.69
2017-12-02T12:08:59.000Z,3.70
2017-12-02T12:09:59.000Z,3.72
2017-12-02T12:10:59.000Z,3.72
2017-12-02T12:11:59.000Z,3.69
2017-12-02T12:12:59.000Z,3.61
2017-12-02T12:13:59.000Z,3.58
2017-12-02T12:14:59.000Z,3.54
2017-12-02T12:15:59.000Z,3.50
2017-12-02T12:16:59.000Z,3.47
2017-12-02T12:17:59.000Z,3.45
2017-12-02T12:18:59.000Z,3.42
2017-12-02T12:19:59.000Z,3.41
2017-12-02T12:20:59.000Z,3.41
2017-12-02T12:21:59.000Z,3.40
2017-12-02T12:22:59.000Z,3.36
2017-12-02T12:23:59.000Z,3.33
2017-12-02T12:24:59.000Z,3.32
2017-12-02T12:25:59.000Z,3.33
2017-12-02T12:26:59.000Z,3.33
2017-12-02T12:27:59.000Z,3.32
2017-12-02T12:28:59.000Z,3.33
2017-12-02T12:29:59.000Z,3.34
2017-12-02T12:30:59.000Z,3.37
2017-12-02T12:31:59.000Z,3.39
2017-12-02T12:32:59.000Z,3.41
2017-12-02T12:33:59.000Z,3.42
2017-12-02T12:34:59.000Z,3.44
2017-12-02T12:35:59.000Z,3.44
2017-12-02T12:36:59.000Z,3.44
2017-12-02T12:37:59.000Z,3.45
2017-12-02T12:38:59.000Z,3.47
2017-12-02T12:39:59.000Z,3.52
2017-12-02T12:40:59.000Z,3.54
2017-12-02T12:41:59.000Z,3.57
2017-12-02T12:42:59.000Z,3.59
2017-12-02T12:43:59.000Z,3.62
2017-12-02T12:44:59.000Z,3.62
2017-12-02T12:45:59.000Z,3.63
2017-12-02T12:46:59.000Z,3.64
2017-12-02T12:47:59.000Z,3.65
2017-12-02T12:48:59.000Z,3.66
2017-12-02T12:49:59.000Z,3.69
2017-12-02T12:50:59.000Z,3.70
2017-12-02T12:51:59.000Z,3.74
2017-12-02T12:52:59.000Z,3.75
2017-12-02T12:53:59.000Z,3.77
2017-12-02T12:54:59.000Z,3.76
2017-12-02T12:55:59.000Z,3.75
2017-12-02T12:56:59.000Z,3.73
2017-12-02T12:57:59.000Z,3.74
2017-12-02T12:58:59.000Z,3.66
2017-12-02T12:59:59.000Z,3.63
2017-12-02T13:00:59.000Z,3.62
2017-12-02T13:01:59.000Z,3.54
2017-12-02T13:02:59.000Z,3.52
2017-12-02T13:03:59.000Z,3.53
2017-12-02T13:04:59.000Z,3.51
2017-12-02T13:05:59.000Z,3.48
2017-12-02T13:06:59.000Z,3.45
2017-12-02T13:07:59.000Z,3.42
2017-12-02T13:08:59.000Z,3.39
2017-12-02T13:09:59.000Z,3.36
2017-12-02T13:10:59.000Z,3.36
2017-12-02T13:11:59.000Z,3.31
2017-12-02T13:12:59.000Z,3.33
2017-12-02T13:13:59.000Z,3.32
2017-12-02T13:14:59.000Z,3.32
2017-12-02T13:15:59.000Z,3.31
2017-12-02T13:16:59.000Z,3.31